Time;durP1;ratioP1;P1;durP2;ratioP2;P2;SDS_P1;SDS_P2;PMS_P1;PMS_P2;Temp;Humidity;BMP_temperature;BMP_pressure;BME280_temperature;BME280_humidity;BME280_pressure;Samples;Min_cycle;Max_cycle;Signal;HPM_P1;HPM_P2
2022/03/02 00:01:35;;;;;;;39.50;17.20;;;;;;;3.88;74.00;102655.81;5011654;28;20029;-88
2022/03/02 00:04:00;;;;;;;39.45;17.05;;;;;;;3.93;74.24;102660.28;5029391;28;20425;-87
2022/03/02 00:06:25;;;;;;;44.17;18.17;;;;;;;3.92;74.56;102660.22;5028488;28;20025;-87
2022/03/02 00:08:51;;;;;;;40.28;17.17;;;;;;;3.94;75.25;102671.41;5028953;28;20033;-87
2022/03/02 00:11:16;;;;;;;40.40;17.70;;;;;;;3.85;74.10;102659.16;5028313;28;20118;-88
2022/03/02 00:13:42;;;;;;;39.50;17.50;;;;;;;3.85;76.91;102666.84;5022631;28;20036;-87
2022/03/02 00:16:08;;;;;;;42.65;17.52;;;;;;;3.76;75.64;102663.97;5028611;28;20412;-88
2022/03/02 00:18:34;;;;;;;39.13;16.55;;;;;;;3.69;76.01;102662.00;5026815;28;20442;-88
2022/03/02 00:20:59;;;;;;;40.22;17.15;;;;;;;3.64;78.18;102660.13;5014574;28;20483;-87
2022/03/02 00:23:24;;;;;;;39.65;16.90;;;;;;;3.61;77.41;102666.03;5020171;28;20024;-87
2022/03/02 00:25:50;;;;;;;36.95;16.15;;;;;;;3.51;76.22;102656.28;5028701;28;20452;-87
2022/03/02 00:28:15;;;;;;;39.17;16.42;;;;;;;3.49;76.30;102655.34;5039225;28;20041;-88
2022/03/02 00:30:41;;;;;;;39.97;17.35;;;;;;;3.44;78.77;102654.31;5032651;28;20629;-88
2022/03/02 00:33:07;;;;;;;36.95;17.10;;;;;;;3.38;79.08;102659.22;5024609;28;20033;-88
2022/03/02 00:35:34;;;;;;;42.13;16.88;;;;;;;3.33;79.89;102656.53;5037998;28;20026;-88
2022/03/02 00:37:59;;;;;;;37.92;16.95;;;;;;;3.25;79.83;102652.81;5045180;28;20040;-88
2022/03/02 00:40:25;;;;;;;40.53;16.77;;;;;;;3.20;79.64;102651.78;5039466;28;20043;-88
2022/03/02 00:42:50;;;;;;;38.58;16.58;;;;;;;3.12;80.35;102643.81;5039585;28;20054;-87
2022/03/02 00:45:16;;;;;;;41.55;16.70;;;;;;;3.09;79.85;102643.69;5020479;28;20063;-88
2022/03/02 00:47:41;;;;;;;37.50;15.77;;;;;;;3.02;79.93;102636.63;5034284;28;20112;-87
2022/03/02 00:50:07;;;;;;;39.50;16.73;;;;;;;2.99;81.21;102651.88;5035231;28;20075;-88
2022/03/02 00:52:33;;;;;;;40.00;16.45;;;;;;;2.96;76.79;102650.88;5032302;28;20075;-88
2022/03/02 00:54:58;;;;;;;37.60;16.05;;;;;;;2.98;75.58;102644.16;5032380;28;20026;-87
2022/03/02 00:57:24;;;;;;;36.67;15.32;;;;;;;3.06;74.94;102641.06;5034920;28;20101;-88
2022/03/02 00:59:49;;;;;;;37.25;15.25;;;;;;;3.09;75.26;102635.16;5032188;28;20026;-88
2022/03/02 01:02:14;;;;;;;37.70;15.88;;;;;;;2.98;78.82;102621.97;5042914;28;20704;-88
2022/03/02 01:04:40;;;;;;;38.95;16.08;;;;;;;3.03;76.30;102640.94;5032293;28;20074;-88
2022/03/02 01:07:05;;;;;;;39.33;15.85;;;;;;;2.98;78.30;102628.78;5025820;28;20053;-87
2022/03/02 01:09:31;;;;;;;35.63;15.32;;;;;;;2.99;78.57;102631.41;5038677;28;20040;-88
2022/03/02 01:11:56;;;;;;;37.65;14.98;;;;;;;2.99;78.31;102639.09;5033383;28;20396;-87
2022/03/02 01:14:22;;;;;;;37.45;15.73;;;;;;;2.97;75.52;102638.16;5018668;28;20499;-88
2022/03/02 01:16:48;;;;;;;36.75;15.43;;;;;;;3.03;77.86;102629.81;5038927;28;20052;-88
2022/03/02 01:19:13;;;;;;;36.53;15.75;;;;;;;3.04;78.33;102634.13;5027454;28;20068;-87
2022/03/02 01:21:39;;;;;;;40.30;16.25;;;;;;;3.04;75.98;102629.00;5038347;28;20041;-88
2022/03/02 01:24:05;;;;;;;35.58;15.50;;;;;;;3.03;79.39;102623.00;5038391;28;20473;-88
2022/03/02 01:26:31;;;;;;;41.30;16.35;;;;;;;3.04;78.91;102619.63;5038421;28;20029;-88
2022/03/02 01:28:56;;;;;;;38.75;15.82;;;;;;;3.07;77.48;102619.72;5030569;28;20043;-88
2022/03/02 01:31:23;;;;;;;37.15;15.48;;;;;;;3.08;73.99;102616.34;5034727;28;20052;-89
2022/03/02 01:33:50;;;;;;;41.88;16.45;;;;;;;3.11;76.08;102615.59;5023880;28;20528;-88
2022/03/02 01:36:16;;;;;;;40.88;15.27;;;;;;;3.15;74.91;102615.72;5020707;28;20076;-88
2022/03/02 01:38:41;;;;;;;37.63;15.77;;;;;;;3.18;75.43;102620.97;5039834;28;20029;-88
2022/03/02 01:41:07;;;;;;;41.25;16.23;;;;;;;3.18;77.33;102614.97;5037815;28;20021;-88
2022/03/02 01:43:32;;;;;;;41.08;16.05;;;;;;;3.15;74.57;102612.28;5033517;28;20064;-89
2022/03/02 01:45:57;;;;;;;40.85;16.00;;;;;;;3.15;77.78;102609.75;5026386;28;20032;-88
2022/03/02 01:48:23;;;;;;;36.97;15.60;;;;;;;3.10;77.37;102612.16;5029929;28;20442;-88
2022/03/02 01:50:48;;;;;;;35.85;15.10;;;;;;;3.01;78.17;102609.25;5030065;28;20111;-88
2022/03/02 01:53:14;;;;;;;40.85;16.52;;;;;;;2.97;78.96;102601.41;5031196;28;20026;-88
2022/03/02 01:55:39;;;;;;;36.38;15.60;;;;;;;2.93;76.26;102602.13;5042823;28;20108;-88
2022/03/02 01:58:04;;;;;;;37.17;16.10;;;;;;;2.92;78.86;102613.19;5031132;28;20021;-88
2022/03/02 02:00:31;;;;;;;39.47;16.58;;;;;;;2.89;79.75;102606.25;5016235;28;21261;-88
2022/03/02 02:02:57;;;;;;;38.53;15.05;;;;;;;2.87;80.07;102605.31;5044418;28;20117;-88
2022/03/02 02:05:22;;;;;;;37.42;15.65;;;;;;;2.84;75.84;102594.13;5030115;28;20028;-88
2022/03/02 02:07:48;;;;;;;39.05;16.08;;;;;;;2.89;76.38;102597.69;5030932;28;20454;-88
2022/03/02 02:10:14;;;;;;;38.13;15.50;;;;;;;2.89;76.02;102590.91;5034962;28;20561;-88
2022/03/02 02:12:40;;;;;;;39.75;15.55;;;;;;;2.94;76.57;102594.47;5020903;28;20104;-88
2022/03/02 02:15:09;;;;;;;38.70;15.68;;;;;;;2.93;78.44;102591.91;5032815;28;20025;-88
2022/03/02 02:17:34;;;;;;;38.22;15.38;;;;;;;2.91;74.85;102593.53;5028121;28;20020;-88
2022/03/02 02:20:00;;;;;;;38.25;15.13;;;;;;;2.92;74.29;102588.47;5020162;28;20052;-88
2022/03/02 02:22:25;;;;;;;35.78;14.88;;;;;;;2.94;74.54;102584.25;5031447;28;20411;-88
2022/03/02 02:24:50;;;;;;;36.58;15.05;;;;;;;2.96;76.68;102581.75;5034474;28;20100;-89
2022/03/02 02:27:16;;;;;;;39.30;15.35;;;;;;;2.99;75.17;102592.09;5013297;28;20484;-88
2022/03/02 02:29:42;;;;;;;37.20;14.77;;;;;;;2.97;73.59;102583.50;5031871;28;20559;-88
2022/03/02 02:32:08;;;;;;;38.13;15.90;;;;;;;2.97;76.58;102570.69;5032309;28;20025;-88
2022/03/02 02:34:34;;;;;;;35.15;14.75;;;;;;;2.98;75.84;102573.31;5032410;28;20055;-88
2022/03/02 02:37:00;;;;;;;35.80;14.65;;;;;;;2.99;75.71;102567.38;5036221;28;20028;-88
2022/03/02 02:39:27;;;;;;;33.63;14.90;;;;;;;2.93;76.99;102567.16;5036045;28;20029;-88
2022/03/02 02:41:52;;;;;;;35.33;14.50;;;;;;;2.89;74.38;102564.41;5013636;28;20025;-88
2022/03/02 02:44:17;;;;;;;37.70;14.95;;;;;;;2.87;74.83;102564.34;5014288;28;20037;-88
2022/03/02 02:46:44;;;;;;;36.95;15.23;;;;;;;2.87;76.11;102571.16;5017519;28;20452;-88
2022/03/02 02:49:09;;;;;;;35.10;14.40;;;;;;;2.80;73.78;102556.44;5033848;28;20032;-88
2022/03/02 02:51:35;;;;;;;37.35;15.02;;;;;;;2.85;72.58;102566.00;5030333;28;20021;-88
2022/03/02 02:54:02;;;;;;;35.25;14.88;;;;;;;2.86;75.09;102562.63;5031561;28;20045;-89
2022/03/02 02:56:27;;;;;;;34.45;14.55;;;;;;;2.81;76.06;102558.16;5036870;28;20026;-88
2022/03/02 02:58:53;;;;;;;31.50;13.90;;;;;;;2.79;76.63;102558.13;5031999;28;20112;-88
2022/03/02 03:01:18;;;;;;;35.83;14.60;;;;;;;2.72;77.34;102551.03;5030486;28;20022;-88
2022/03/02 03:03:43;;;;;;;33.88;14.75;;;;;;;2.69;76.57;102549.22;5013372;28;20037;-88
2022/03/02 03:06:09;;;;;;;37.13;14.90;;;;;;;2.66;78.42;102556.78;5011759;28;20049;-88
2022/03/02 03:08:34;;;;;;;37.35;14.40;;;;;;;2.61;77.45;102560.00;5030554;28;20033;-88
2022/03/02 03:10:59;;;;;;;33.85;14.50;;;;;;;2.56;78.26;102564.97;5033357;28;20040;-88
2022/03/02 03:13:25;;;;;;;33.42;14.25;;;;;;;2.49;78.93;102552.75;5036272;28;20021;-88
2022/03/02 03:15:50;;;;;;;36.53;15.20;;;;;;;2.41;79.51;102543.91;5019676;28;20132;-88
2022/03/02 03:18:16;;;;;;;33.10;14.15;;;;;;;2.42;79.02;102555.03;5013987;28;20102;-88
2022/03/02 03:20:41;;;;;;;37.85;15.02;;;;;;;2.36;80.13;102550.56;5012585;28;20040;-88
2022/03/02 03:23:07;;;;;;;35.53;14.82;;;;;;;2.31;80.13;102557.19;5032747;28;20086;-89
2022/03/02 03:25:33;;;;;;;37.10;15.05;;;;;;;2.31;79.49;102555.50;5012784;28;20464;-88
2022/03/02 03:27:59;;;;;;;37.55;14.80;;;;;;;2.25;78.76;102547.59;5011770;28;20043;-88
2022/03/02 03:30:26;;;;;;;38.78;15.55;;;;;;;2.25;80.80;102552.69;5018325;28;20218;-88
2022/03/02 03:32:51;;;;;;;32.85;14.38;;;;;;;2.23;79.89;102562.03;5031376;28;20040;-88
2022/03/02 03:35:19;;;;;;;34.28;13.88;;;;;;;2.20;80.45;102548.22;5034760;28;20025;-87
2022/03/02 03:37:45;;;;;;;35.78;15.10;;;;;;;2.18;81.44;102555.88;5033944;28;20391;-88
2022/03/02 03:40:13;;;;;;;35.08;14.95;;;;;;;2.15;81.87;102549.75;5035646;28;20448;-88
2022/03/02 03:42:39;;;;;;;32.88;14.23;;;;;;;2.03;81.52;102539.94;5028995;28;20053;-88
2022/03/02 03:45:05;;;;;;;34.58;14.02;;;;;;;2.03;82.01;102552.72;5034141;28;20029;-88
2022/03/02 03:47:30;;;;;;;33.17;14.35;;;;;;;1.93;81.55;102548.03;5030446;28;20064;-88
2022/03/02 03:49:56;;;;;;;35.50;15.25;;;;;;;1.92;82.52;102552.28;5030924;28;20049;-88
2022/03/02 03:52:21;;;;;;;34.15;14.00;;;;;;;1.86;82.70;102549.50;5027875;28;20021;-88
2022/03/02 03:54:46;;;;;;;33.65;14.23;;;;;;;1.82;82.40;102550.19;5035067;28;20383;-88
2022/03/02 03:57:12;;;;;;;31.67;14.25;;;;;;;1.82;82.88;102552.75;5013274;28;20419;-88
2022/03/02 03:59:37;;;;;;;35.53;14.85;;;;;;;1.80;82.41;102548.38;5032677;28;20488;-88
2022/03/02 04:02:03;;;;;;;35.15;14.57;;;;;;;1.71;82.24;102545.44;5028827;28;20029;-88
2022/03/02 04:04:28;;;;;;;33.35;13.93;;;;;;;1.63;82.46;102542.63;5040807;28;20171;-88
2022/03/02 04:06:54;;;;;;;36.47;15.15;;;;;;;1.66;82.65;102547.84;5033892;28;20071;-88
2022/03/02 04:09:19;;;;;;;36.50;14.82;;;;;;;1.62;83.06;102540.00;5022098;28;20112;-88
2022/03/02 04:11:44;;;;;;;30.90;13.50;;;;;;;1.59;83.24;102538.19;5033791;28;20072;-88
2022/03/02 04:14:10;;;;;;;32.40;14.00;;;;;;;1.53;82.64;102528.59;5038212;28;20102;-89
2022/03/02 04:16:35;;;;;;;36.47;15.02;;;;;;;1.48;83.54;102530.09;5022365;28;20371;-88
2022/03/02 04:19:04;;;;;;;38.00;14.73;;;;;;;1.45;84.19;102524.84;5033387;28;20234;-88
2022/03/02 04:21:29;;;;;;;37.00;13.90;;;;;;;1.43;83.86;102521.34;5040020;28;20022;-89
2022/03/02 04:23:55;;;;;;;33.85;14.38;;;;;;;1.38;84.23;102514.31;5016932;28;20345;-88
2022/03/02 04:26:20;;;;;;;33.42;13.55;;;;;;;1.34;84.59;102509.91;5032284;28;20033;-88
2022/03/02 04:28:45;;;;;;;33.78;14.57;;;;;;;1.36;84.63;102519.41;5022419;28;20100;-89
2022/03/02 04:31:10;;;;;;;34.90;14.75;;;;;;;1.36;85.01;102521.06;5036083;28;20099;-88
2022/03/02 04:33:36;;;;;;;34.45;14.60;;;;;;;1.35;85.30;102511.66;5038889;28;20546;-89
2022/03/02 04:36:05;;;;;;;33.53;14.52;;;;;;;1.32;85.32;102511.53;5032102;28;20037;-89
2022/03/02 04:38:30;;;;;;;34.33;14.32;;;;;;;1.32;84.76;102514.94;5037554;28;20396;-88
2022/03/02 04:40:55;;;;;;;37.47;14.93;;;;;;;1.26;84.95;102503.59;5033441;28;20480;-89
2022/03/02 04:43:21;;;;;;;34.03;14.93;;;;;;;1.31;85.61;102505.53;5023790;28;20049;-88
2022/03/02 04:45:46;;;;;;;36.40;14.88;;;;;;;1.25;85.59;102502.72;5033543;28;20021;-89
2022/03/02 04:48:12;;;;;;;33.58;13.85;;;;;;;1.29;85.48;102496.09;5039273;28;20040;-88
2022/03/02 04:50:38;;;;;;;35.10;14.23;;;;;;;1.28;85.46;102504.56;5032583;28;20104;-89
2022/03/02 04:53:03;;;;;;;32.30;14.02;;;;;;;1.24;84.83;102503.53;5020966;28;20035;-88
2022/03/02 04:55:30;;;;;;;35.20;14.30;;;;;;;1.19;86.14;102494.81;5036642;28;20032;-89
2022/03/02 04:57:58;;;;;;;33.20;14.15;;;;;;;1.22;86.11;102507.75;5040398;28;20434;-89
2022/03/02 05:00:27;;;;;;;37.15;14.68;;;;;;;1.21;85.86;102508.53;5018136;28;20036;-88
2022/03/02 05:02:53;;;;;;;34.15;14.27;;;;;;;1.19;85.64;102502.50;5038404;28;20091;-88
2022/03/02 05:05:21;;;;;;;35.80;14.40;;;;;;;1.14;85.00;102504.88;5033749;28;20025;-89
2022/03/02 05:07:48;;;;;;;33.95;13.63;;;;;;;1.11;85.60;102498.75;5015942;28;20385;-89
2022/03/02 05:10:15;;;;;;;36.78;14.90;;;;;;;1.05;86.15;102495.94;5044789;28;20036;-89
2022/03/02 05:12:41;;;;;;;34.05;13.95;;;;;;;0.98;84.63;102491.38;5038300;28;20029;-88
2022/03/02 05:15:09;;;;;;;39.10;14.45;;;;;;;1.00;84.52;102497.44;5031635;28;20026;-89
2022/03/02 05:17:35;;;;;;;35.25;14.63;;;;;;;0.96;84.45;102493.00;5031835;28;20025;-89
2022/03/02 05:20:01;;;;;;;34.97;14.13;;;;;;;0.94;85.86;102492.06;5016412;28;20064;-89
2022/03/02 05:22:26;;;;;;;36.95;14.35;;;;;;;0.89;86.05;102496.13;5035201;28;20270;-89
2022/03/02 05:24:52;;;;;;;37.15;14.20;;;;;;;0.81;85.61;102483.03;5037076;28;20565;-89
2022/03/02 05:27:17;;;;;;;33.75;14.05;;;;;;;0.78;85.57;102490.56;5035482;28;20354;-89
2022/03/02 05:29:42;;;;;;;39.33;14.63;;;;;;;0.75;85.69;102487.88;5037906;28;20531;-89
2022/03/02 05:32:08;;;;;;;37.75;14.10;;;;;;;0.67;86.13;102482.44;5019667;28;20517;-89
2022/03/02 05:34:34;;;;;;;35.15;14.13;;;;;;;0.68;85.29;102491.81;5032709;28;20442;-88
2022/03/02 05:36:59;;;;;;;38.97;13.98;;;;;;;0.68;86.17;102498.63;5013844;28;20033;-89
2022/03/02 05:39:25;;;;;;;35.90;14.75;;;;;;;0.63;87.08;102485.66;5017667;28;20026;-89
2022/03/02 05:41:51;;;;;;;37.63;14.85;;;;;;;0.60;85.84;102490.66;5035357;28;20137;-89
2022/03/02 05:44:17;;;;;;;34.65;13.55;;;;;;;0.59;86.32;102488.91;5031221;28;20115;-89
2022/03/02 05:46:42;;;;;;;32.10;14.00;;;;;;;0.46;86.86;102465.34;5042618;28;20049;-89
2022/03/02 05:49:08;;;;;;;38.63;15.13;;;;;;;0.55;87.02;102489.56;5031474;28;20508;-89
2022/03/02 05:51:34;;;;;;;35.10;13.85;;;;;;;0.50;86.86;102485.94;5030353;28;20087;-89
2022/03/02 05:54:00;;;;;;;40.63;14.55;;;;;;;0.49;86.86;102484.19;5033128;28;20033;-89
2022/03/02 05:56:25;;;;;;;39.50;15.25;;;;;;;0.49;87.50;102489.28;5017655;28;20498;-87
2022/03/02 05:58:53;;;;;;;33.80;13.48;;;;;;;0.47;88.06;102488.38;5033540;28;20038;-85
2022/03/02 06:01:20;;;;;;;35.53;15.23;;;;;;;0.49;87.58;102486.75;5033169;28;20079;-86
2022/03/02 06:03:46;;;;;;;38.58;15.27;;;;;;;0.50;87.58;102490.16;5013172;28;20021;-85
2022/03/02 06:06:11;;;;;;;34.17;14.88;;;;;;;0.47;87.08;102485.81;5030587;28;20028;-85
2022/03/02 06:08:37;;;;;;;35.15;14.15;;;;;;;0.49;87.20;102494.41;5039427;28;20450;-84
2022/03/02 06:11:03;;;;;;;36.85;15.27;;;;;;;0.48;87.84;102494.34;5015950;28;20021;-84
2022/03/02 06:13:29;;;;;;;37.50;14.57;;;;;;;0.47;87.10;102500.25;5030930;28;20025;-84
2022/03/02 06:15:55;;;;;;;35.55;14.02;;;;;;;0.47;87.75;102501.13;5032301;28;20040;-85
2022/03/02 06:18:21;;;;;;;41.17;14.82;;;;;;;0.47;88.06;102500.25;5012922;28;20021;-85
2022/03/02 06:20:49;;;;;;;35.70;14.75;;;;;;;0.43;87.74;102486.47;5019409;28;20159;-85
2022/03/02 06:23:14;;;;;;;36.42;14.95;;;;;;;0.42;87.99;102487.28;5033696;28;20120;-87
2022/03/02 06:25:40;;;;;;;35.00;14.25;;;;;;;0.46;87.74;102495.94;5033433;28;20145;-86
2022/03/02 06:28:05;;;;;;;37.13;14.48;;;;;;;0.47;88.42;102501.13;5034806;28;20037;-86
2022/03/02 06:30:31;;;;;;;34.63;14.90;;;;;;;0.49;88.24;102494.41;5032768;28;20033;-87
2022/03/02 06:32:56;;;;;;;37.80;14.55;;;;;;;0.49;86.56;102494.41;5028928;28;20013;-89
2022/03/02 06:35:22;;;;;;;37.40;14.82;;;;;;;0.57;87.34;102505.81;5027228;28;20030;-89
2022/03/02 06:37:47;;;;;;;35.72;14.52;;;;;;;0.53;87.66;102486.09;5028939;28;20452;-89
2022/03/02 06:40:13;;;;;;;39.15;15.15;;;;;;;0.60;87.99;102492.31;5030789;28;20056;-88
2022/03/02 06:42:47;;;;;;;37.38;14.52;;;;;;;0.70;88.04;102510.63;5023513;28;20077;-89
2022/03/02 06:45:23;;;;;;;36.38;14.40;;;;;;;0.77;87.67;102510.09;5027940;28;20033;-89
2022/03/02 06:47:57;;;;;;;33.88;13.85;;;;;;;0.83;87.58;102500.94;5011843;28;20512;-89
2022/03/02 06:50:30;;;;;;;35.10;14.23;;;;;;;0.89;87.04;102501.22;5030709;28;20025;-89
2022/03/02 06:52:57;;;;;;;34.70;14.63;;;;;;;1.01;87.06;102506.84;5028758;28;20036;-89
2022/03/02 06:55:23;;;;;;;32.78;14.35;;;;;;;1.04;86.26;102514.63;5010848;28;20056;-89
2022/03/02 06:57:56;;;;;;;36.90;14.75;;;;;;;1.12;86.46;102514.13;5028230;28;20431;-89
2022/03/02 07:00:23;;;;;;;38.00;15.25;;;;;;;1.17;86.65;102514.31;5033005;28;20520;-89
2022/03/02 07:02:51;;;;;;;37.65;15.20;;;;;;;1.23;86.87;102512.00;5012161;28;20116;-89
2022/03/02 07:05:19;;;;;;;38.20;15.18;;;;;;;1.33;86.29;102524.34;5044657;28;20496;-89
2022/03/02 07:07:46;;;;;;;34.90;14.15;;;;;;;1.45;85.68;102516.31;5028282;28;20533;-89
2022/03/02 07:10:12;;;;;;;37.28;15.02;;;;;;;1.54;84.77;102512.44;5011944;28;20040;-95
2022/03/02 07:12:38;;;;;;;36.60;14.73;;;;;;;1.62;81.30;102512.75;5024251;28;20038;-94
2022/03/02 07:15:04;;;;;;;35.53;14.40;;;;;;;1.76;81.25;102518.41;5060180;28;20061;-95
2022/03/02 07:17:33;;;;;;;32.38;14.20;;;;;;;1.91;77.04;102516.47;5051317;28;20037;-94
2022/03/02 07:20:04;;;;;;;35.22;15.32;;;;;;;2.42;77.78;102504.72;5030666;28;20028;-94
2022/03/02 07:22:32;;;;;;;36.30;14.77;;;;;;;3.03;79.18;102515.41;5022977;28;20488;-93
2022/03/02 07:25:11;;;;;;;38.22;14.60;;;;;;;3.32;78.98;102507.81;5030748;28;20391;-93
2022/03/02 07:27:39;;;;;;;33.78;14.50;;;;;;;3.58;78.09;102514.66;5018804;28;20037;-89
2022/03/02 07:30:08;;;;;;;32.92;13.32;;;;;;;3.60;70.79;102505.31;5015975;28;20035;-89
2022/03/02 07:32:41;;;;;;;32.22;14.43;;;;;;;3.63;72.54;102513.09;5029404;28;20029;-89
2022/03/02 07:35:07;;;;;;;34.35;13.95;;;;;;;3.85;75.10;102504.38;5028452;28;20029;-89
2022/03/02 07:37:33;;;;;;;34.83;14.40;;;;;;;3.96;73.94;102503.00;5029683;28;20083;-89
2022/03/02 07:39:59;;;;;;;32.17;13.68;;;;;;;4.09;71.75;102504.25;5035252;28;20385;-88
2022/03/02 07:42:24;;;;;;;34.88;15.35;;;;;;;4.13;73.87;102508.63;5035656;28;20530;-88
2022/03/02 07:44:50;;;;;;;31.95;13.85;;;;;;;4.26;69.99;102501.34;5037022;28;20526;-88
2022/03/02 07:47:17;;;;;;;33.85;14.55;;;;;;;4.31;67.92;102498.91;5035029;28;20029;-88
2022/03/02 07:49:43;;;;;;;30.95;14.13;;;;;;;4.33;67.67;102505.81;5039573;28;20044;-88
2022/03/02 07:52:09;;;;;;;33.38;13.52;;;;;;;4.23;68.57;102501.25;5023601;28;20033;-87
2022/03/02 07:54:39;;;;;;;29.95;12.98;;;;;;;4.12;68.20;102505.19;5024217;28;20067;-88
2022/03/02 07:57:07;;;;;;;31.55;13.93;;;;;;;4.13;66.41;102496.69;5034230;28;20017;-88
2022/03/02 07:59:36;;;;;;;28.77;13.23;;;;;;;4.28;68.54;102497.13;5042469;28;20025;-88
2022/03/02 08:02:04;;;;;;;29.48;13.10;;;;;;;4.51;67.51;102502.00;5033518;28;20022;-88
2022/03/02 08:04:30;;;;;;;32.47;13.35;;;;;;;4.65;66.35;102501.56;5034533;28;20029;-87
2022/03/02 08:06:56;;;;;;;26.73;13.00;;;;;;;4.94;66.40;102501.47;5035059;28;20091;-85
2022/03/02 08:09:21;;;;;;;31.50;14.00;;;;;;;5.26;64.38;102500.59;5034217;28;20025;-86
2022/03/02 08:11:46;;;;;;;32.53;14.30;;;;;;;5.45;63.17;102491.63;5037651;28;20087;-85
2022/03/02 08:14:12;;;;;;;30.38;14.18;;;;;;;5.62;63.36;102484.28;5041233;28;20067;-85
2022/03/02 08:16:37;;;;;;;30.73;13.73;;;;;;;5.94;61.48;102491.91;5034033;28;20029;-87
2022/03/02 08:19:04;;;;;;;28.08;12.60;;;;;;;6.51;60.87;102487.94;5035357;28;20024;-86
2022/03/02 08:21:31;;;;;;;29.70;13.38;;;;;;;7.31;57.22;102485.91;5034518;28;20546;-84
2022/03/02 08:23:59;;;;;;;26.20;12.48;;;;;;;8.66;52.20;102478.31;5032660;28;20055;-86
2022/03/02 08:26:26;;;;;;;25.67;13.13;;;;;;;10.53;50.78;102470.94;5032248;28;20033;-86
2022/03/02 08:29:00;;;;;;;25.02;12.57;;;;;;;12.18;51.08;102464.78;5035674;28;20379;-86
2022/03/02 08:31:27;;;;;;;27.10;12.82;;;;;;;13.89;44.61;102454.75;5036975;28;20018;-86
2022/03/02 08:33:53;;;;;;;26.42;12.48;;;;;;;14.93;41.81;102462.94;5034551;28;20017;-86
2022/03/02 08:36:21;;;;;;;27.25;12.90;;;;;;;15.15;38.27;102460.81;5031812;28;20026;-85
2022/03/02 08:38:50;;;;;;;26.13;12.57;;;;;;;15.24;37.45;102458.03;5033251;28;20025;-83
2022/03/02 08:41:17;;;;;;;23.52;12.13;;;;;;;15.34;36.93;102457.00;5045014;28;20522;-83
2022/03/02 08:43:44;;;;;;;22.77;12.27;;;;;;;14.41;36.57;102461.94;5034583;28;20123;-84
2022/03/02 08:46:09;;;;;;;24.67;12.20;;;;;;;13.27;38.63;102463.22;5043284;28;20025;-84
2022/03/02 08:48:35;;;;;;;25.80;12.77;;;;;;;12.92;38.30;102461.72;5030437;28;20041;-83
2022/03/02 08:51:00;;;;;;;22.42;12.35;;;;;;;12.61;38.57;102463.69;5015200;28;20033;-84
2022/03/02 08:53:26;;;;;;;23.98;12.52;;;;;;;12.04;37.58;102469.16;5040669;28;20021;-83
2022/03/02 08:55:53;;;;;;;24.33;12.80;;;;;;;11.51;39.18;102472.72;5036897;28;20033;-83
2022/03/02 08:58:19;;;;;;;23.75;12.93;;;;;;;11.00;43.68;102465.81;5035259;28;20033;-84
2022/03/02 09:00:45;;;;;;;24.17;13.13;;;;;;;10.38;42.58;102471.75;5038567;28;20064;-83
2022/03/02 09:03:14;;;;;;;25.50;12.88;;;;;;;9.85;43.09;102464.59;5033594;28;20058;-86
2022/03/02 09:05:40;;;;;;;23.15;13.18;;;;;;;9.37;43.28;102465.16;5020183;28;20144;-86
2022/03/02 09:08:06;;;;;;;27.50;12.95;;;;;;;9.13;44.93;102471.88;5014937;28;20116;-86
2022/03/02 09:10:32;;;;;;;26.42;13.85;;;;;;;8.87;45.66;102469.88;5044197;28;20026;-85
2022/03/02 09:12:59;;;;;;;27.38;13.23;;;;;;;8.65;46.31;102462.78;5014988;28;20032;-84
2022/03/02 09:15:26;;;;;;;23.92;12.85;;;;;;;8.50;46.13;102466.09;5033068;28;20029;-84
2022/03/02 09:17:52;;;;;;;25.25;13.07;;;;;;;8.38;47.04;102467.66;5031868;28;20391;-84
2022/03/02 09:20:17;;;;;;;26.02;13.52;;;;;;;8.29;48.08;102458.06;5041593;28;20518;-84
2022/03/02 09:22:43;;;;;;;26.33;12.93;;;;;;;8.28;46.33;102458.91;5028557;28;20029;-85
2022/03/02 09:25:10;;;;;;;25.05;13.38;;;;;;;8.37;47.23;102460.75;5035742;28;20595;-85
2022/03/02 09:27:36;;;;;;;26.50;13.55;;;;;;;8.40;46.97;102450.44;5040583;28;20063;-84
2022/03/02 09:30:06;;;;;;;26.92;12.93;;;;;;;8.52;46.01;102453.19;5032046;28;20033;-84
2022/03/02 09:32:32;;;;;;;27.02;13.57;;;;;;;8.64;45.43;102446.41;5032523;28;20400;-84
2022/03/02 09:34:59;;;;;;;25.95;13.48;;;;;;;8.81;45.18;102445.69;5039180;28;20061;-84
2022/03/02 09:37:26;;;;;;;24.70;12.75;;;;;;;8.88;44.83;102445.75;5035503;28;20426;-85
2022/03/02 09:39:52;;;;;;;24.92;12.55;;;;;;;8.97;45.34;102437.22;5029976;28;20032;-85
2022/03/02 09:42:40;;;;;;;23.98;12.73;;;;;;;9.05;46.05;102436.44;5039952;28;20041;-84
2022/03/02 09:45:08;;;;;;;25.92;12.38;;;;;;;9.20;44.64;102432.25;5039709;28;20530;-84
2022/03/02 09:47:44;;;;;;;23.52;12.35;;;;;;;9.43;45.22;102436.72;5037181;28;20044;-84
2022/03/02 09:50:12;;;;;;;27.42;12.98;;;;;;;9.52;41.90;102446.28;5039546;28;20522;-84
2022/03/02 09:52:41;;;;;;;27.35;13.27;;;;;;;9.49;42.56;102435.88;5007417;28;20113;-84
2022/03/02 09:55:12;;;;;;;23.58;12.15;;;;;;;9.55;43.16;102430.78;5024477;28;20022;-84
2022/03/02 09:57:44;;;;;;;26.15;13.18;;;;;;;9.57;44.62;102435.94;5033054;28;20034;-84
2022/03/02 10:00:12;;;;;;;26.67;13.13;;;;;;;9.45;42.83;102432.44;5012755;28;20021;-85
2022/03/02 10:02:40;;;;;;;21.50;11.93;;;;;;;9.37;43.11;102438.41;5031568;28;20053;-86
2022/03/02 10:05:09;;;;;;;24.98;12.25;;;;;;;9.07;42.66;102432.16;5031094;28;20036;-84
2022/03/02 10:07:39;;;;;;;26.17;12.57;;;;;;;8.79;44.82;102437.94;5035747;28;20107;-86
2022/03/02 10:10:11;;;;;;;24.27;12.05;;;;;;;8.66;46.03;102431.81;5030438;28;20392;-86
2022/03/02 10:12:38;;;;;;;24.55;12.43;;;;;;;8.56;44.87;102432.53;5031266;28;20037;-87
2022/03/02 10:15:06;;;;;;;27.83;12.38;;;;;;;8.38;44.64;102434.06;5012978;28;20548;-84
2022/03/02 10:17:38;;;;;;;24.88;12.57;;;;;;;8.33;46.03;102436.59;5032268;28;20030;-84
2022/03/02 10:20:07;;;;;;;24.90;12.27;;;;;;;8.32;45.74;102432.31;5025055;28;20060;-85
2022/03/02 10:22:57;;;;;;;27.23;12.38;;;;;;;8.31;45.01;102438.31;5022122;28;20098;-86
2022/03/02 10:25:41;;;;;;;24.75;12.25;;;;;;;8.23;45.80;102434.72;5040282;28;20025;-83
2022/03/02 10:28:07;;;;;;;22.48;11.75;;;;;;;8.25;45.77;102438.22;5042647;28;20037;-85
2022/03/02 10:30:40;;;;;;;29.45;12.30;;;;;;;8.33;46.02;102441.75;5031267;28;20404;-85
2022/03/02 10:33:21;;;;;;;24.05;12.32;;;;;;;8.38;45.23;102439.25;5037904;28;20499;-84
2022/03/02 10:36:07;;;;;;;27.08;12.63;;;;;;;8.42;45.52;102430.66;5030329;28;20036;-84
2022/03/02 10:38:39;;;;;;;29.40;12.25;;;;;;;8.48;46.97;102428.13;5032729;28;20029;-83
2022/03/02 10:41:08;;;;;;;25.55;12.63;;;;;;;8.53;45.90;102424.75;5032094;28;20044;-84
2022/03/02 10:44:03;;;;;;;25.67;12.70;;;;;;;8.60;46.54;102421.38;5032612;28;20045;-83
2022/03/02 10:46:29;;;;;;;27.65;13.32;;;;;;;8.67;45.09;102415.41;5029647;28;20587;-83
2022/03/02 10:49:07;;;;;;;23.75;12.07;;;;;;;8.67;44.44;102409.38;5037441;28;20041;-83
2022/03/02 10:51:35;;;;;;;27.00;12.75;;;;;;;8.69;44.98;102423.19;5030084;28;20060;-84
2022/03/02 10:54:05;;;;;;;24.65;11.82;;;;;;;8.78;45.61;102417.25;5039006;28;20037;-84
2022/03/02 10:56:38;;;;;;;22.60;11.73;;;;;;;8.90;45.57;102417.34;5030759;28;20116;-84
2022/03/02 10:59:08;;;;;;;24.17;11.63;;;;;;;8.97;43.32;102414.81;5036702;28;20439;-85
2022/03/02 11:01:35;;;;;;;23.70;11.48;;;;;;;8.96;41.77;102413.09;5029640;28;20030;-84
2022/03/02 11:04:01;;;;;;;24.83;12.80;;;;;;;8.96;42.92;102417.38;5013769;28;20423;-84
2022/03/02 11:06:29;;;;;;;25.25;11.75;;;;;;;8.98;41.98;102407.94;5011662;28;20482;-85
2022/03/02 11:09:00;;;;;;;23.98;11.73;;;;;;;9.03;43.27;102403.66;5034096;28;20021;-84
2022/03/02 11:11:26;;;;;;;24.52;11.13;;;;;;;9.08;43.13;102396.78;5021773;28;20025;-85
2022/03/02 11:13:52;;;;;;;22.60;11.20;;;;;;;9.14;42.75;102399.44;5032611;28;20040;-84
2022/03/02 11:16:21;;;;;;;22.98;11.15;;;;;;;9.18;41.10;102401.19;5029733;28;20548;-84